BEL7AM LOWW-EBBR
Flight info
| Callsign | BEL7AM |
|---|---|
| Flight time | N/A |
| Altitude | 34000 |
| Route | MEDIX2B/16 MEDIX DCT RENKA DCT INBED DCT TEKTU DCT TESGA DCT UMUPU T880 BATTY |
| Aircraft | A320/M-SDE3FGHIRWY/LB1 |
Departure
| Time | 2026-05-04 18:40 |
|---|---|
| Airport | Vienna International Airport (LOWW) |
Arrival
| Time | N/A |
|---|---|
| Airport | Brussels Airport (EBBR) |
| Time | Latitude | Longitude | Altitude | Speed | Heading |
|---|---|---|---|---|---|
| 2026-05-04 18:17 | 48.11441 | 16.57069 | 613 ft | 0 kts | 204° |
| 2026-05-04 18:35 | 48.11440 | 16.57069 | 610 ft | 1 kts | 204° |
| 2026-05-04 18:35 | 48.11410 | 16.57049 | 618 ft | 8 kts | 199° |
| 2026-05-04 18:35 | 48.11360 | 16.57096 | 613 ft | 11 kts | 118° |
| 2026-05-04 18:36 | 48.11323 | 16.57207 | 614 ft | 13 kts | 116° |
| 2026-05-04 18:36 | 48.11281 | 16.57337 | 616 ft | 15 kts | 116° |
| 2026-05-04 18:36 | 48.11233 | 16.57485 | 615 ft | 17 kts | 116° |
| 2026-05-04 18:36 | 48.11180 | 16.57648 | 620 ft | 18 kts | 116° |
| 2026-05-04 18:37 | 48.11127 | 16.57808 | 609 ft | 16 kts | 117° |
| 2026-05-04 18:37 | 48.11084 | 16.57943 | 614 ft | 6 kts | 115° |
| 2026-05-04 18:37 | 48.11078 | 16.57962 | 619 ft | 0 kts | 115° |
| 2026-05-04 18:38 | 48.11066 | 16.57999 | 616 ft | 10 kts | 115° |
| 2026-05-04 18:39 | 48.11021 | 16.58124 | 609 ft | 15 kts | 122° |
| 2026-05-04 18:39 | 48.10989 | 16.58222 | 612 ft | 8 kts | 116° |
| 2026-05-04 18:39 | 48.10943 | 16.58255 | 615 ft | 0 kts | 164° |
| 2026-05-04 18:40 | 48.10894 | 16.58276 | 620 ft | 36 kts | 164° |
| 2026-05-04 18:40 | 48.10406 | 16.58487 | 617 ft | 107 kts | 164° |
| 2026-05-04 18:40 | 48.09846 | 16.58729 | 616 ft | 145 kts | 163° |
| 2026-05-04 18:40 | 48.08846 | 16.59151 | 1206 ft | 146 kts | 165° |
| 2026-05-04 18:41 | 48.07879 | 16.59556 | 2024 ft | 143 kts | 165° |
| 2026-05-04 18:41 | 48.06927 | 16.59942 | 2763 ft | 141 kts | 169° |
| 2026-05-04 18:41 | 48.05969 | 16.59820 | 3410 ft | 142 kts | 203° |
| 2026-05-04 18:41 | 48.05193 | 16.58886 | 3989 ft | 149 kts | 223° |
| 2026-05-04 18:42 | 48.04420 | 16.57688 | 4315 ft | 171 kts | 224° |
| 2026-05-04 18:42 | 48.03534 | 16.56324 | 4657 ft | 195 kts | 224° |
| 2026-05-04 18:42 | 48.02693 | 16.54608 | 5020 ft | 218 kts | 246° |
| 2026-05-04 18:42 | 48.02555 | 16.52237 | 5458 ft | 243 kts | 277° |
| 2026-05-04 18:43 | 48.03075 | 16.49771 | 6178 ft | 255 kts | 287° |
| 2026-05-04 18:43 | 48.03711 | 16.47177 | 6784 ft | 272 kts | 288° |
| 2026-05-04 18:43 | 48.04374 | 16.44511 | 7619 ft | 278 kts | 288° |
| 2026-05-04 18:43 | 48.05055 | 16.41781 | 8523 ft | 282 kts | 289° |
| 2026-05-04 18:44 | 48.05745 | 16.39013 | 9415 ft | 287 kts | 288° |
| 2026-05-04 18:44 | 48.06206 | 16.37155 | 9994 ft | 290 kts | 288° |
| 2026-05-04 18:44 | 48.07176 | 16.33222 | 10575 ft | 317 kts | 288° |
| 2026-05-04 18:44 | 48.07954 | 16.30055 | 11145 ft | 329 kts | 288° |
| 2026-05-04 18:45 | 48.08747 | 16.26823 | 11928 ft | 333 kts | 288° |
| 2026-05-04 18:45 | 48.09552 | 16.23545 | 12732 ft | 338 kts | 288° |
| 2026-05-04 18:45 | 48.10365 | 16.20229 | 13545 ft | 341 kts | 288° |
| 2026-05-04 18:45 | 48.11186 | 16.16879 | 14293 ft | 345 kts | 288° |
| 2026-05-04 18:46 | 48.12013 | 16.13493 | 15009 ft | 348 kts | 288° |
| 2026-05-04 18:46 | 48.12843 | 16.10076 | 15729 ft | 351 kts | 288° |
| 2026-05-04 18:46 | 48.13678 | 16.06629 | 16436 ft | 354 kts | 288° |
| 2026-05-04 18:46 | 48.14524 | 16.03136 | 17138 ft | 358 kts | 288° |
| 2026-05-04 18:47 | 48.15376 | 15.99622 | 17840 ft | 361 kts | 288° |
| 2026-05-04 18:47 | 48.16236 | 15.96073 | 18485 ft | 365 kts | 288° |
| 2026-05-04 18:47 | 48.17106 | 15.92481 | 19085 ft | 368 kts | 288° |
| 2026-05-04 18:47 | 48.17982 | 15.88854 | 19699 ft | 371 kts | 288° |
| 2026-05-04 18:48 | 48.18856 | 15.85221 | 20317 ft | 373 kts | 288° |
| 2026-05-04 18:48 | 48.19740 | 15.81542 | 20929 ft | 376 kts | 288° |
| 2026-05-04 18:48 | 48.20628 | 15.77838 | 21525 ft | 379 kts | 289° |
| 2026-05-04 18:48 | 48.21523 | 15.74095 | 22134 ft | 382 kts | 289° |
| 2026-05-04 18:49 | 48.22424 | 15.70326 | 22734 ft | 385 kts | 289° |
| 2026-05-04 18:49 | 48.23330 | 15.66533 | 23327 ft | 388 kts | 289° |
| 2026-05-04 18:49 | 48.24245 | 15.62701 | 23840 ft | 391 kts | 289° |
| 2026-05-04 18:49 | 48.25162 | 15.58849 | 24329 ft | 394 kts | 289° |
| 2026-05-04 18:50 | 48.26086 | 15.54954 | 24813 ft | 396 kts | 289° |
| 2026-05-04 18:50 | 48.27010 | 15.51052 | 25291 ft | 398 kts | 289° |
| 2026-05-04 18:50 | 48.27925 | 15.47174 | 25747 ft | 400 kts | 289° |
| 2026-05-04 18:50 | 48.28866 | 15.43171 | 26198 ft | 403 kts | 288° |
| 2026-05-04 18:51 | 48.29643 | 15.39183 | 26629 ft | 405 kts | 284° |
| 2026-05-04 18:51 | 48.30345 | 15.35076 | 27063 ft | 407 kts | 283° |
| 2026-05-04 18:51 | 48.31015 | 15.30932 | 27489 ft | 409 kts | 283° |
| 2026-05-04 18:51 | 48.31669 | 15.26761 | 27908 ft | 411 kts | 283° |
| 2026-05-04 18:52 | 48.32321 | 15.22568 | 28315 ft | 414 kts | 283° |
| 2026-05-04 18:52 | 48.32981 | 15.18348 | 28721 ft | 416 kts | 283° |
| 2026-05-04 18:52 | 48.33650 | 15.14118 | 29122 ft | 418 kts | 283° |
| 2026-05-04 18:52 | 48.34330 | 15.09848 | 29512 ft | 420 kts | 283° |
| 2026-05-04 18:53 | 48.35011 | 15.05569 | 29883 ft | 423 kts | 283° |
| 2026-05-04 18:53 | 48.35695 | 15.01262 | 30208 ft | 425 kts | 283° |
| 2026-05-04 18:53 | 48.36382 | 14.96932 | 30528 ft | 426 kts | 282° |
| 2026-05-04 18:53 | 48.37069 | 14.92591 | 30838 ft | 428 kts | 282° |
| 2026-05-04 18:54 | 48.37760 | 14.88215 | 31133 ft | 430 kts | 282° |
| 2026-05-04 18:54 | 48.38450 | 14.83835 | 31422 ft | 432 kts | 282° |
| 2026-05-04 18:54 | 48.39142 | 14.79433 | 31734 ft | 432 kts | 282° |
| 2026-05-04 18:54 | 48.39828 | 14.75038 | 32127 ft | 431 kts | 282° |
| 2026-05-04 18:55 | 48.40509 | 14.70648 | 32535 ft | 430 kts | 282° |
| 2026-05-04 18:55 | 48.41863 | 14.61910 | 33330 ft | 428 kts | 282° |
| 2026-05-04 18:55 | 48.42535 | 14.57559 | 33733 ft | 426 kts | 281° |
| 2026-05-04 18:56 | 48.43206 | 14.53206 | 33888 ft | 424 kts | 281° |
| 2026-05-04 18:56 | 48.43854 | 14.48993 | 33907 ft | 413 kts | 281° |
| 2026-05-04 18:56 | 48.45136 | 14.40583 | 33906 ft | 408 kts | 281° |
| 2026-05-04 18:57 | 48.46394 | 14.32302 | 33904 ft | 408 kts | 281° |
| 2026-05-04 18:57 | 48.47653 | 14.23961 | 33908 ft | 409 kts | 281° |
| 2026-05-04 18:58 | 48.48908 | 14.15600 | 33906 ft | 409 kts | 281° |
| 2026-05-04 18:58 | 48.50166 | 14.07226 | 33903 ft | 409 kts | 281° |
| 2026-05-04 18:59 | 48.51284 | 13.99752 | 33905 ft | 409 kts | 281° |
| 2026-05-04 18:59 | 48.52490 | 13.91635 | 33902 ft | 409 kts | 280° |
| 2026-05-04 19:00 | 48.53728 | 13.83261 | 33909 ft | 409 kts | 280° |
| 2026-05-04 19:00 | 48.54955 | 13.74874 | 33916 ft | 409 kts | 280° |
| 2026-05-04 19:01 | 48.56176 | 13.66505 | 33915 ft | 408 kts | 280° |
| 2026-05-04 19:01 | 48.57389 | 13.58142 | 33917 ft | 408 kts | 280° |
| 2026-05-04 19:02 | 48.58790 | 13.49840 | 33918 ft | 409 kts | 289° |
| 2026-05-04 19:02 | 48.61269 | 13.42073 | 33911 ft | 411 kts | 294° |
| 2026-05-04 19:03 | 48.62543 | 13.38199 | 33668 ft | 413 kts | 293° |
| 2026-05-04 19:03 | 48.63817 | 13.34313 | 33163 ft | 412 kts | 293° |
| 2026-05-04 19:03 | 48.65088 | 13.30423 | 32690 ft | 413 kts | 293° |
| 2026-05-04 19:03 | 48.66362 | 13.26518 | 32231 ft | 414 kts | 293° |
| 2026-05-04 19:04 | 48.67640 | 13.22601 | 31745 ft | 415 kts | 293° |
| 2026-05-04 19:04 | 48.68912 | 13.18662 | 31297 ft | 423 kts | 293° |
| 2026-05-04 19:04 | 48.70480 | 13.14840 | 30837 ft | 433 kts | 308° |
| 2026-05-04 19:04 | 48.72752 | 13.11818 | 30399 ft | 438 kts | 323° |
| 2026-05-04 19:05 | 48.75306 | 13.09287 | 29970 ft | 438 kts | 324° |
| 2026-05-04 19:05 | 48.77863 | 13.06811 | 29457 ft | 435 kts | 325° |
| 2026-05-04 19:05 | 48.80401 | 13.04357 | 28963 ft | 431 kts | 325° |
| 2026-05-04 19:05 | 48.82924 | 13.01917 | 28469 ft | 427 kts | 325° |
| 2026-05-04 19:06 | 48.85410 | 12.99513 | 27986 ft | 420 kts | 325° |
| 2026-05-04 19:06 | 48.87814 | 12.97048 | 27515 ft | 412 kts | 317° |
| 2026-05-04 19:06 | 48.89746 | 12.93926 | 26919 ft | 403 kts | 302° |
| 2026-05-04 19:06 | 48.91014 | 12.90163 | 26281 ft | 397 kts | 286° |
| 2026-05-04 19:07 | 48.91536 | 12.86079 | 25662 ft | 393 kts | 271° |
| 2026-05-04 19:07 | 48.91313 | 12.81965 | 25055 ft | 390 kts | 256° |
| 2026-05-04 19:07 | 48.90386 | 12.78117 | 24455 ft | 388 kts | 242° |
| 2026-05-04 19:07 | 48.88808 | 12.74817 | 23870 ft | 387 kts | 226° |
| 2026-05-04 19:08 | 48.86701 | 12.72288 | 23247 ft | 387 kts | 216° |
| 2026-05-04 19:08 | 48.84476 | 12.69980 | 22585 ft | 387 kts | 215° |
| 2026-05-04 19:08 | 48.82248 | 12.67694 | 21921 ft | 386 kts | 215° |